Time;durP1;ratioP1;P1;durP2;ratioP2;P2;SDS_P1;SDS_P2;PMS_P1;PMS_P2;Temp;Humidity;BMP_temperature;BMP_pressure;BME280_temperature;BME280_humidity;BME280_pressure;Samples;Min_cycle;Max_cycle;Signal;HPM_P1;HPM_P2
2021/10/08 11:53:42;;;;;;;;;;;;;;;;;;4955331;28;19926;-88
2021/10/08 11:56:24;;;;;;;;;;;;;;;;;;4947191;28;19927;-88
2021/10/08 11:58:53;;;;;;;;;;;;;;;;;;4934285;28;19933;-90
2021/10/08 12:01:22;;;;;;;;;;;;;;;;;;4939556;29;19937;-87
2021/10/08 12:03:51;;;;;;;;;;;;;;;;;;4917386;28;19926;-88
2021/10/08 12:06:23;;;;;;;;;;;;;;;;;;4943460;28;19927;-87
2021/10/08 12:08:53;;;;;;;;;;;;;;;;;;4927877;28;19930;-88
2021/10/08 12:11:21;;;;;;;;;;;;;;;;;;4929270;29;19930;-88
2021/10/08 12:13:51;;;;;;;;;;;;;;;;;;4918537;28;19927;-88
2021/10/08 12:16:19;;;;;;;;;;;;;;;;;;4929127;28;19945;-89
2021/10/08 12:18:48;;;;;;;;;;;;;;;;;;4935170;28;20397;-89
2021/10/08 12:21:20;;;;;;;;;;;;;;;;;;4916069;29;19934;-89
2021/10/08 12:23:57;;;;;;;;;;;;;;;;;;4922381;28;19937;-90
2021/10/08 12:26:25;;;;;;;;;;;;;;;;;;4928210;29;20290;-89
2021/10/08 12:28:54;;;;;;;;;;;;;;;;;;4923363;29;19926;-90
2021/10/08 12:31:22;;;;;;;;;;;;;;;;;;4916332;29;19930;-90
2021/10/08 12:33:51;;;;;;;;;;;;;;;;;;4933694;28;19931;-89
2021/10/08 12:36:22;;;;;;;;;;;;;;;;;;4923392;28;19950;-89
2021/10/08 12:38:54;;;;;;;;;;;;;;;;;;4926196;28;20385;-89
2021/10/08 12:41:26;;;;;;;;;;;;;;;;;;4923041;29;19926;-88
2021/10/08 12:44:10;;;;;;;;;;;;;;;;;;4926760;28;19934;-90
2021/10/08 12:46:39;;;;;;;;;;;;;;;;;;4951619;28;20286;-90
2021/10/08 12:49:08;;;;;;;;;;;;;;;;;;4936506;29;19938;-91
2021/10/08 12:51:46;;;;;;;;;;;;;;;;;;4918216;29;19926;-90
2021/10/08 12:54:33;;;;;;;;;;;;;;;;;;4930219;29;19938;-91
2021/10/08 12:57:10;;;;;;;;;;;;;;;;;;4938566;28;19933;-88
2021/10/08 12:59:45;;;;;;;;;;;;;;;;;;4920700;29;19933;-88
2021/10/08 13:02:14;;;;;;;;;;;;;;;;;;4923227;28;19937;-90
2021/10/08 13:04:42;;;;;;;;;;;;;;;;;;4922407;28;19933;-89
2021/10/08 13:07:15;;;;;;;;;;;;;;;;;;4930984;29;19931;-90
2021/10/08 13:10:02;;;;;;;;;;;;;;;;;;4921371;28;19934;-89
2021/10/08 13:12:41;;;;;;;;;;;;;;;;;;4921652;28;19930;-91
2021/10/08 13:15:10;;;;;;;;;;;;;;;;;;4939298;29;19933;-89
2021/10/08 13:17:38;;;;;;;;;;;;;;;;;;4926813;28;20246;-90
2021/10/08 13:20:08;;;;;;;;;;;;;;;;;;4942180;28;19926;-90
2021/10/08 13:22:36;;;;;;;;;;;;;;;;;;4939397;28;19914;-91
2021/10/08 13:25:04;;;;;;;;;;;;;;;;;;4952660;28;19921;-92
2021/10/08 13:27:33;;;;;;;;;;;;;;;;;;4936389;29;20400;-91
2021/10/08 13:30:04;;;;;;;;;;;;;;;;;;4923030;29;19931;-91
2021/10/08 13:32:32;;;;;;;;;;;;;;;;;;4926762;29;19926;-91
2021/10/08 13:35:00;;;;;;;;;;;;;;;;;;4926400;28;19935;-92
2021/10/08 13:37:29;;;;;;;;;;;;;;;;;;4922800;28;19934;-91
2021/10/08 13:39:57;;;;;;;;;;;;;;;;;;4920248;28;19926;-90
2021/10/08 13:42:26;;;;;;;;;;;;;;;;;;4918887;29;19942;-91
2021/10/08 13:44:54;;;;;;;;;;;;;;;;;;4934827;28;19926;-91
2021/10/08 13:47:23;;;;;;;;;;;;;;;;;;4929640;28;20197;-89
2021/10/08 13:49:52;;;;;;;;;;;;;;;;;;4923078;29;19926;-92
2021/10/08 13:52:20;;;;;;;;;;;;;;;;;;4943215;28;19934;-90
2021/10/08 13:54:48;;;;;;;;;;;;;;;;;;4924754;28;19926;-90
2021/10/08 13:57:17;;;;;;;;;;;;;;;;;;4939605;28;19937;-90
2021/10/08 13:59:45;;;;;;;;;;;;;;;;;;4928815;28;19945;-89
2021/10/08 14:02:18;;;;;;;;;;;;;;;;;;4922580;28;19950;-93
2021/10/08 14:04:51;;;;;;;;;;;;;;;;;;4928184;29;19953;-91
2021/10/08 14:07:34;;;;;;;;;;;;;;;;;;4921443;29;19931;-92
2021/10/08 14:10:20;;;;;;;;;;;;;;;;;;4920572;29;19934;-90
2021/10/08 14:12:49;;;;;;;;;;;;;;;;;;4922707;28;20410;-90
2021/10/08 14:15:18;;;;;;;;;;;;;;;;;;4934265;29;20393;-90
2021/10/08 14:17:46;;;;;;;;;;;;;;;;;;4902100;29;19937;-91
2021/10/08 14:20:16;;;;;;;;;;;;;;;;;;4938634;29;19949;-91
2021/10/08 14:22:45;;;;;;;;;;;;;;;;;;4954319;28;19933;-91
2021/10/08 14:25:14;;;;;;;;;;;;;;;;;;4943851;28;20407;-90
2021/10/08 14:27:42;;;;;;;;;;;;;;;;;;4931192;28;19926;-93
2021/10/08 14:30:11;;;;;;;;;;;;;;;;;;4941031;29;19942;-92
2021/10/08 14:32:39;;;;;;;;;;;;;;;;;;4946033;29;19927;-90
2021/10/08 14:35:08;;;;;;;;;;;;;;;;;;4922009;29;19934;-92
2021/10/08 14:37:38;;;;;;;;;;;;;;;;;;4944863;28;19933;-92
2021/10/08 14:40:08;;;;;;;;;;;;;;;;;;4942248;29;19934;-92
2021/10/08 14:42:36;;;;;;;;;;;;;;;;;;4937313;29;19926;-92
2021/10/08 14:45:07;;;;;;;;;;;;;;;;;;4906734;28;22174;-92
2021/10/08 14:47:38;;;;;;;;;;;;;;;;;;4921378;29;19933;-92
2021/10/08 14:50:07;;;;;;;;;;;;;;;;;;4922711;29;19937;-92
2021/10/08 14:52:39;;;;;;;;;;;;;;;;;;4936773;28;19941;-90
2021/10/08 14:55:21;;;;;;;;;;;;;;;;;;4938750;28;20313;-91
2021/10/08 14:57:59;;;;;;;;;;;;;;;;;;4956847;28;19926;-90
2021/10/08 15:00:28;;;;;;;;;;;;;;;;;;4939239;29;19946;-93
2021/10/08 15:03:08;;;;;;;;;;;;;;;;;;4955884;28;20332;-91
2021/10/08 15:05:36;;;;;;;;;;;;;;;;;;4937226;29;19927;-91
2021/10/08 15:08:06;;;;;;;;;;;;;;;;;;4924012;28;19927;-91
2021/10/08 15:10:35;;;;;;;;;;;;;;;;;;4936710;29;19927;-91
2021/10/08 15:13:03;;;;;;;;;;;;;;;;;;4901981;29;19962;-90
2021/10/08 15:15:32;;;;;;;;;;;;;;;;;;4933163;29;19926;-91
2021/10/08 15:18:00;;;;;;;;;;;;;;;;;;4943766;28;19934;-92
2021/10/08 15:20:29;;;;;;;;;;;;;;;;;;4932363;29;19926;-91
2021/10/08 15:22:57;;;;;;;;;;;;;;;;;;4920633;29;20214;-92
2021/10/08 15:25:28;;;;;;;;;;;;;;;;;;4920509;29;19927;-93
2021/10/08 15:27:57;;;;;;;;;;;;;;;;;;4918052;29;19931;-92
2021/10/08 15:30:25;;;;;;;;;;;;;;;;;;4925050;29;20411;-90
2021/10/08 15:32:54;;;;;;;;;;;;;;;;;;4928516;29;19926;-92
2021/10/08 15:35:22;;;;;;;;;;;;;;;;;;4945557;29;19934;-92
2021/10/08 15:37:50;;;;;;;;;;;;;;;;;;4921484;29;19926;-92
2021/10/08 15:40:21;;;;;;;;;;;;;;;;;;4926001;29;19937;-92
2021/10/08 15:42:52;;;;;;;;;;;;;;;;;;4921437;29;19933;-92
2021/10/08 15:45:21;;;;;;;;;;;;;;;;;;4931197;29;19925;-93
2021/10/08 15:47:49;;;;;;;;;;;;;;;;;;4954632;28;19915;-94
2021/10/08 15:50:21;;;;;;;;;;;;;;;;;;4927644;28;19934;-93
2021/10/08 15:52:50;;;;;;;;;;;;;;;;;;4938303;28;19926;-94
2021/10/08 15:55:19;;;;;;;;;;;;;;;;;;4940741;28;19933;-93
2021/10/08 15:57:53;;;;;;;;;;;;;;;;;;4941681;28;19926;-93
2021/10/08 16:00:21;;;;;;;;;;;;;;;;;;4944065;28;19926;-92
2021/10/08 16:02:50;;;;;;;;;;;;;;;;;;4927979;29;19934;-92
2021/10/08 16:05:18;;;;;;;;;;;;;;;;;;4924503;29;19927;-92
2021/10/08 16:07:47;;;;;;;;;;;;;;;;;;4924271;29;19930;-92
2021/10/08 16:10:15;;;;;;;;;;;;;;;;;;4925205;29;19953;-92
2021/10/08 16:12:44;;;;;;;;;;;;;;;;;;4924844;29;19933;-92
2021/10/08 16:15:16;;;;;;;;;;;;;;;;;;4945151;28;19926;-93
2021/10/08 16:17:45;;;;;;;;;;;;;;;;;;4935650;29;19927;-92
2021/10/08 16:20:14;;;;;;;;;;;;;;;;;;4924152;29;19934;-93
2021/10/08 16:22:44;;;;;;;;;;;;;;;;;;4924214;29;19933;-94
2021/10/08 16:25:12;;;;;;;;;;;;;;;;;;4924304;29;19927;-93
2021/10/08 16:27:40;;;;;;;;;;;;;;;;;;4924185;29;19926;-91
2021/10/08 16:30:09;;;;;;;;;;;;;;;;;;4939916;29;19935;-94
2021/10/08 16:32:49;;;;;;;;;;;;;;;;;;4924006;29;19926;-93
2021/10/08 16:35:18;;;;;;;;;;;;;;;;;;4940092;29;19927;-93
2021/10/08 16:38:06;;;;;;;;;;;;;;;;;;4940642;29;19927;-95
2021/10/08 16:40:35;;;;;;;;;;;;;;;;;;4940112;29;19948;-93
2021/10/08 16:43:03;;;;;;;;;;;;;;;;;;4941485;29;20392;-89
2021/10/08 16:45:34;;;;;;;;;;;;;;;;;;4923473;29;19926;-93
2021/10/08 16:48:07;;;;;;;;;;;;;;;;;;4940011;29;19927;-91
2021/10/08 16:50:35;;;;;;;;;;;;;;;;;;4939605;29;19933;-92
2021/10/08 16:53:05;;;;;;;;;;;;;;;;;;4939386;29;19926;-91
2021/10/08 16:55:35;;;;;;;;;;;;;;;;;;4923652;29;19937;-92
2021/10/08 16:58:03;;;;;;;;;;;;;;;;;;4923518;29;19926;-89
2021/10/08 17:00:32;;;;;;;;;;;;;;;;;;4923456;29;19934;-92
2021/10/08 17:03:00;;;;;;;;;;;;;;;;;;4923071;29;19926;-92
2021/10/08 17:05:30;;;;;;;;;;;;;;;;;;4922420;29;20836;-91
2021/10/08 17:07:59;;;;;;;;;;;;;;;;;;4939474;28;19996;-92
2021/10/08 17:10:28;;;;;;;;;;;;;;;;;;4957021;28;20015;-92
2021/10/08 17:12:56;;;;;;;;;;;;;;;;;;4942619;28;19933;-91
2021/10/08 17:15:25;;;;;;;;;;;;;;;;;;4942668;28;20388;-89
2021/10/08 17:17:53;;;;;;;;;;;;;;;;;;4958600;28;19934;-93
2021/10/08 17:20:22;;;;;;;;;;;;;;;;;;4942434;28;19926;-90
2021/10/08 17:22:54;;;;;;;;;;;;;;;;;;4942427;28;20388;-91
2021/10/08 17:25:28;;;;;;;;;;;;;;;;;;4942425;28;19927;-91
2021/10/08 17:28:00;;;;;;;;;;;;;;;;;;4941822;28;19926;-92
2021/10/08 17:30:56;;;;;;;;;;;;;;;;;;4941442;28;19926;-91
2021/10/08 17:36:10;;;;;;;;;;;;;;;;;;4941658;28;20253;-90
2021/10/08 17:38:40;;;;;;;;;;;;;;;;;;4941359;28;19937;-92
2021/10/08 17:41:08;;;;;;;;;;;;;;;;;;4941124;28;19926;-92
2021/10/08 17:43:37;;;;;;;;;;;;;;;;;;4957196;28;20313;-91
2021/10/08 17:46:05;;;;;;;;;;;;;;;;;;4957133;28;20312;-91
2021/10/08 17:48:36;;;;;;;;;;;;;;;;;;4957235;28;19926;-92
2021/10/08 17:51:04;;;;;;;;;;;;;;;;;;4957228;28;19949;-91
2021/10/08 17:53:33;;;;;;;;;;;;;;;;;;4941746;28;19930;-92
2021/10/08 17:56:06;;;;;;;;;;;;;;;;;;4957384;28;19926;-93
2021/10/08 17:58:34;;;;;;;;;;;;;;;;;;4941919;28;19926;-92
2021/10/08 18:01:04;;;;;;;;;;;;;;;;;;4941336;28;19930;-91
2021/10/08 18:03:33;;;;;;;;;;;;;;;;;;4942027;28;19926;-92
2021/10/08 18:06:01;;;;;;;;;;;;;;;;;;4946828;28;19933;-94
2021/10/08 18:08:30;;;;;;;;;;;;;;;;;;4961336;28;19914;-94
2021/10/08 18:10:58;;;;;;;;;;;;;;;;;;4956677;28;19925;-92
2021/10/08 18:13:28;;;;;;;;;;;;;;;;;;4939980;28;19926;-91
2021/10/08 18:16:00;;;;;;;;;;;;;;;;;;4958755;28;19930;-92
2021/10/08 18:18:28;;;;;;;;;;;;;;;;;;4957924;28;19927;-92
2021/10/08 18:20:56;;;;;;;;;;;;;;;;;;4957359;28;19926;-92
2021/10/08 18:23:25;;;;;;;;;;;;;;;;;;4957108;28;19933;-92
2021/10/08 18:25:54;;;;;;;;;;;;;;;;;;4958044;28;19941;-91
2021/10/08 18:28:22;;;;;;;;;;;;;;;;;;4941798;28;20381;-93
2021/10/08 18:30:58;;;;;;;;;;;;;;;;;;4941090;28;19933;-93
2021/10/08 18:33:26;;;;;;;;;;;;;;;;;;4956883;28;19937;-94
2021/10/08 18:35:55;;;;;;;;;;;;;;;;;;4936389;28;19926;-91
2021/10/08 18:38:23;;;;;;;;;;;;;;;;;;4938672;29;19941;-91
2021/10/08 18:40:52;;;;;;;;;;;;;;;;;;4935901;29;20424;-88
2021/10/08 18:43:20;;;;;;;;;;;;;;;;;;4935829;29;19926;-92
2021/10/08 18:45:49;;;;;;;;;;;;;;;;;;4933845;29;19927;-91
2021/10/08 18:48:19;;;;;;;;;;;;;;;;;;4915749;28;19933;-91
2021/10/08 18:50:47;;;;;;;;;;;;;;;;;;4929511;29;19933;-90
2021/10/08 18:53:18;;;;;;;;;;;;;;;;;;4934839;29;19926;-91
2021/10/08 18:55:47;;;;;;;;;;;;;;;;;;4956884;28;19949;-92
2021/10/08 18:58:15;;;;;;;;;;;;;;;;;;4922685;29;20393;-93
2021/10/08 19:00:45;;;;;;;;;;;;;;;;;;4917620;29;19933;-91
2021/10/08 19:03:15;;;;;;;;;;;;;;;;;;4933430;28;20389;-90
2021/10/08 19:05:47;;;;;;;;;;;;;;;;;;4942348;28;19930;-92
2021/10/08 19:08:18;;;;;;;;;;;;;;;;;;4926645;29;19930;-90
2021/10/08 19:13:34;;;;;;;;;;;;;;;;;;4931293;29;19938;-91
2021/10/08 19:16:11;;;;;;;;;;;;;;;;;;4919801;29;20308;-89
2021/10/08 19:18:42;;;;;;;;;;;;;;;;;;4922440;28;19933;-91
2021/10/08 19:21:12;;;;;;;;;;;;;;;;;;4899023;29;19931;-91
2021/10/08 19:23:41;;;;;;;;;;;;;;;;;;4905584;28;19931;-91
2021/10/08 19:26:09;;;;;;;;;;;;;;;;;;4945846;28;19926;-91
2021/10/08 19:28:37;;;;;;;;;;;;;;;;;;4922593;29;19930;-91
2021/10/08 19:31:06;;;;;;;;;;;;;;;;;;4928017;29;20916;-91
2021/10/08 19:33:34;;;;;;;;;;;;;;;;;;4936988;29;19930;-92
2021/10/08 19:36:02;;;;;;;;;;;;;;;;;;4938883;29;19953;-92
2021/10/08 19:38:32;;;;;;;;;;;;;;;;;;4921278;29;19930;-91
2021/10/08 19:41:00;;;;;;;;;;;;;;;;;;4921982;29;19926;-92
2021/10/08 19:43:30;;;;;;;;;;;;;;;;;;4922796;29;19949;-90
2021/10/08 19:46:04;;;;;;;;;;;;;;;;;;4913080;29;19931;-90
2021/10/08 19:48:32;;;;;;;;;;;;;;;;;;4902348;29;19927;-91
2021/10/08 19:51:01;;;;;;;;;;;;;;;;;;4902525;29;19938;-92
2021/10/08 19:53:30;;;;;;;;;;;;;;;;;;4903011;29;20278;-91
2021/10/08 19:56:00;;;;;;;;;;;;;;;;;;4913094;29;19935;-92
2021/10/08 19:58:28;;;;;;;;;;;;;;;;;;4921288;29;19933;-92
2021/10/08 20:00:57;;;;;;;;;;;;;;;;;;4936641;29;20436;-90
2021/10/08 20:03:27;;;;;;;;;;;;;;;;;;4920981;29;19926;-91
2021/10/08 20:06:01;;;;;;;;;;;;;;;;;;4937248;29;19933;-91
2021/10/08 20:14:03;;;;;;;;;;;;;;;;;;4916277;29;19927;-92
2021/10/08 20:16:32;;;;;;;;;;;;;;;;;;4935963;28;19963;-90
2021/10/08 20:19:00;;;;;;;;;;;;;;;;;;4956428;28;19925;-94
2021/10/08 20:21:31;;;;;;;;;;;;;;;;;;4957517;28;19926;-92
2021/10/08 20:24:03;;;;;;;;;;;;;;;;;;4954099;28;19933;-89
2021/10/08 20:26:42;;;;;;;;;;;;;;;;;;4923518;29;20301;-90
2021/10/08 20:29:17;;;;;;;;;;;;;;;;;;4920611;29;19930;-92
2021/10/08 20:31:49;;;;;;;;;;;;;;;;;;4937321;28;19917;-94
2021/10/08 20:34:22;;;;;;;;;;;;;;;;;;4944053;28;20288;-89
2021/10/08 20:37:11;;;;;;;;;;;;;;;;;;4917330;29;19946;-90
2021/10/08 20:40:31;;;;;;;;;;;;;;;;;;;;;
2021/10/08 20:43:35;;;;;;;;;;;;;;;;;;4913732;29;19938;-91
2021/10/08 20:46:43;;;;;;;;;;;;;;;;;;4920238;29;19930;-89
2021/10/08 20:53:00;;;;;;;;;;;;;;;;;;4924545;29;20389;-88
2021/10/08 20:55:41;;;;;;;;;;;;;;;;;;4936918;28;20285;-92
2021/10/08 20:58:10;;;;;;;;;;;;;;;;;;4958606;28;20376;-88
2021/10/08 21:00:44;;;;;;;;;;;;;;;;;;4958082;28;19926;-91
2021/10/08 21:03:14;;;;;;;;;;;;;;;;;;4959093;28;19926;-90
2021/10/08 21:05:42;;;;;;;;;;;;;;;;;;4942127;28;19927;-88
2021/10/08 21:08:15;;;;;;;;;;;;;;;;;;4941104;28;19926;-88
2021/10/08 21:10:44;;;;;;;;;;;;;;;;;;4939336;28;19930;-90
2021/10/08 21:13:13;;;;;;;;;;;;;;;;;;4935295;28;19933;-90
2021/10/08 21:15:41;;;;;;;;;;;;;;;;;;4938421;28;19933;-89
2021/10/08 21:18:16;;;;;;;;;;;;;;;;;;4938388;28;20304;-90
2021/10/08 21:20:58;;;;;;;;;;;;;;;;;;4923122;29;19926;-89
2021/10/08 21:23:36;;;;;;;;;;;;;;;;;;4937117;28;20550;-88
2021/10/08 21:26:14;;;;;;;;;;;;;;;;;;4953929;28;20007;-90
2021/10/08 21:28:46;;;;;;;;;;;;;;;;;;4934511;28;19926;-89
2021/10/08 21:31:19;;;;;;;;;;;;;;;;;;4920332;28;20452;-88
2021/10/08 21:33:55;;;;;;;;;;;;;;;;;;4942256;28;19930;-89
2021/10/08 21:36:52;;;;;;;;;;;;;;;;;;4956735;28;19933;-90
2021/10/08 21:39:32;;;;;;;;;;;;;;;;;;4949021;28;19936;-89
2021/10/08 21:44:51;;;;;;;;;;;;;;;;;;4960959;28;19926;-89
2021/10/08 21:47:19;;;;;;;;;;;;;;;;;;4960948;28;19926;-90
2021/10/08 21:49:49;;;;;;;;;;;;;;;;;;4959946;28;20314;-89
2021/10/08 21:52:17;;;;;;;;;;;;;;;;;;4975216;28;19937;-90
2021/10/08 21:54:45;;;;;;;;;;;;;;;;;;4957626;28;20304;-88
2021/10/08 21:57:14;;;;;;;;;;;;;;;;;;4958496;28;19941;-90
2021/10/08 21:59:42;;;;;;;;;;;;;;;;;;4959954;28;19926;-89
2021/10/08 22:02:11;;;;;;;;;;;;;;;;;;4960245;28;19953;-92
2021/10/08 22:04:39;;;;;;;;;;;;;;;;;;4959920;28;19925;-89
2021/10/08 22:07:09;;;;;;;;;;;;;;;;;;4958940;28;19948;-90
2021/10/08 22:09:38;;;;;;;;;;;;;;;;;;4965721;28;19926;-88
2021/10/08 22:12:06;;;;;;;;;;;;;;;;;;4990229;28;19929;-89
2021/10/08 22:14:34;;;;;;;;;;;;;;;;;;4952386;28;19933;-89
2021/10/08 22:17:03;;;;;;;;;;;;;;;;;;4959452;28;19933;-89
2021/10/08 22:19:34;;;;;;;;;;;;;;;;;;4973953;28;19930;-90
2021/10/08 22:22:03;;;;;;;;;;;;;;;;;;4981081;28;19926;-89
2021/10/08 22:24:38;;;;;;;;;;;;;;;;;;4960424;28;19932;-89
2021/10/08 22:27:16;;;;;;;;;;;;;;;;;;4958288;28;19930;-89
2021/10/08 22:35:16;;;;;;;;;;;;;;;;;;4960192;28;19952;-90
2021/10/08 22:37:44;;;;;;;;;;;;;;;;;;4974700;28;19933;-90
2021/10/08 22:40:14;;;;;;;;;;;;;;;;;;4971889;28;20296;-89
2021/10/08 22:42:42;;;;;;;;;;;;;;;;;;4978244;28;19926;-91
2021/10/08 22:45:11;;;;;;;;;;;;;;;;;;4939851;28;19926;-91
2021/10/08 22:47:39;;;;;;;;;;;;;;;;;;4976034;28;19930;-91
2021/10/08 22:50:08;;;;;;;;;;;;;;;;;;4941761;28;19930;-90
2021/10/08 22:52:36;;;;;;;;;;;;;;;;;;4953221;28;19910;-93
2021/10/08 22:55:05;;;;;;;;;;;;;;;;;;4965574;28;19920;-93
2021/10/08 22:57:35;;;;;;;;;;;;;;;;;;4945589;28;19949;-91
2021/10/08 23:00:04;;;;;;;;;;;;;;;;;;4940167;28;19926;-91
2021/10/08 23:02:32;;;;;;;;;;;;;;;;;;4972828;28;19926;-89
2021/10/08 23:05:01;;;;;;;;;;;;;;;;;;4975554;28;19952;-90
2021/10/08 23:07:32;;;;;;;;;;;;;;;;;;4955250;28;19932;-91
2021/10/08 23:10:05;;;;;;;;;;;;;;;;;;4966842;28;20307;-89
2021/10/08 23:15:24;;;;;;;;;;;;;;;;;;4954530;28;19930;-90
2021/10/08 23:17:52;;;;;;;;;;;;;;;;;;4970083;28;20407;-90
2021/10/08 23:20:21;;;;;;;;;;;;;;;;;;4974375;28;19926;-92
2021/10/08 23:22:49;;;;;;;;;;;;;;;;;;4970223;28;19926;-92
2021/10/08 23:25:18;;;;;;;;;;;;;;;;;;4958754;28;19937;-89
2021/10/08 23:27:48;;;;;;;;;;;;;;;;;;4959621;28;20308;-89
2021/10/08 23:30:16;;;;;;;;;;;;;;;;;;4966838;28;19926;-89
2021/10/08 23:32:45;;;;;;;;;;;;;;;;;;4960586;28;19930;-89
2021/10/08 23:35:13;;;;;;;;;;;;;;;;;;4975552;28;20395;-88
2021/10/08 23:37:41;;;;;;;;;;;;;;;;;;4959181;28;19926;-90
2021/10/08 23:40:20;;;;;;;;;;;;;;;;;;4958810;28;19974;-89
2021/10/08 23:42:50;;;;;;;;;;;;;;;;;;4974267;28;19925;-89
2021/10/08 23:45:18;;;;;;;;;;;;;;;;;;4971202;28;19927;-91
2021/10/08 23:47:48;;;;;;;;;;;;;;;;;;4951210;28;20119;-90
2021/10/08 23:50:16;;;;;;;;;;;;;;;;;;4955753;28;19925;-91
2021/10/08 23:52:44;;;;;;;;;;;;;;;;;;4957886;28;19933;-89
2021/10/08 23:55:13;;;;;;;;;;;;;;;;;;4978224;28;19933;-90
2021/10/08 23:57:41;;;;;;;;;;;;;;;;;;4950879;28;19926;-89
